Time;durP1;ratioP1;P1;durP2;ratioP2;P2;SDS_P1;SDS_P2;PMS_P1;PMS_P2;Temp;Humidity;BMP_temperature;BMP_pressure;BME280_temperature;BME280_humidity;BME280_pressure;Samples;Min_cycle;Max_cycle;Signal;HPM_P1;HPM_P2
2021/05/22 00:00:41;;;;;;;0.77;0.60;;;;;;;10.31;67.61;94907.53;6952976;28;20290;-74
2021/05/22 00:04:03;;;;;;;0.80;0.80;;;;;;;10.33;67.35;94914.34;6953349;28;20214;-73
2021/05/22 00:07:26;;;;;;;0.50;0.50;;;;;;;10.37;67.46;94911.38;6948937;28;20762;-74
2021/05/22 00:10:46;;;;;;;1.47;0.73;;;;;;;10.38;67.86;94926.34;6913135;28;20212;-73
2021/05/22 00:14:09;;;;;;;0.60;0.60;;;;;;;10.38;68.29;94911.25;6932867;28;20354;-73
2021/05/22 00:17:30;;;;;;;2.93;0.67;;;;;;;10.37;68.52;94912.22;6954716;28;20214;-73
2021/05/22 00:20:50;;;;;;;3.27;0.77;;;;;;;10.38;68.33;94915.72;6915974;28;20222;-74
2021/05/22 00:24:11;;;;;;;1.73;0.80;;;;;;;10.36;68.79;94907.94;6928602;28;20212;-73
2021/05/22 00:27:32;;;;;;;1.33;0.83;;;;;;;10.38;68.38;94905.09;6956270;28;20214;-74
2021/05/22 00:30:52;;;;;;;4.00;0.90;;;;;;;10.39;68.53;94902.31;6959910;28;20321;-74
2021/05/22 00:34:13;;;;;;;1.87;0.70;;;;;;;10.40;69.11;94919.94;6964871;28;20614;-73
2021/05/22 00:37:33;;;;;;;1.03;0.70;;;;;;;10.40;68.99;94905.81;6968709;28;20297;-73
2021/05/22 00:40:57;;;;;;;1.70;0.60;;;;;;;10.40;68.38;94906.66;6953189;28;20226;-73
2021/05/22 00:44:18;;;;;;;0.63;0.57;;;;;;;10.43;68.39;94927.59;6971296;28;20222;-73
2021/05/22 00:47:42;;;;;;;1.27;0.60;;;;;;;10.46;68.18;94902.59;6964515;28;20236;-74
2021/05/22 00:51:03;;;;;;;3.53;0.83;;;;;;;10.48;68.06;94906.75;6949717;28;20308;-74
2021/05/22 00:54:26;;;;;;;1.27;0.93;;;;;;;10.47;68.01;94889.16;6948885;28;20345;-74
2021/05/22 00:57:46;;;;;;;9.57;1.00;;;;;;;10.47;68.15;94909.53;6969302;28;20314;-74
2021/05/22 01:01:07;;;;;;;1.37;0.80;;;;;;;10.49;68.24;94919.06;6948116;28;20223;-73
2021/05/22 01:04:28;;;;;;;2.23;0.97;;;;;;;10.52;68.17;94918.75;6955625;28;20255;-73
2021/05/22 01:07:48;;;;;;;1.53;0.83;;;;;;;10.54;67.82;94914.16;6964703;28;20260;-73
2021/05/22 01:11:17;;;;;;;1.03;0.63;;;;;;;10.54;67.78;94914.16;6956723;28;20223;-73
2021/05/22 01:14:48;;;;;;;2.27;0.80;;;;;;;10.49;67.63;94908.44;6956142;28;20593;-73
2021/05/22 01:18:09;;;;;;;1.70;0.93;;;;;;;10.52;67.37;94916.09;6953586;28;20279;-73
2021/05/22 01:21:32;;;;;;;1.53;0.60;;;;;;;10.55;67.91;94907.03;6974829;28;20213;-73
2021/05/22 01:25:00;;;;;;;2.03;0.80;;;;;;;10.60;67.43;94918.91;6968104;28;20228;-73
2021/05/22 01:28:20;;;;;;;3.13;1.20;;;;;;;10.61;67.31;94894.00;6952192;28;20317;-73
2021/05/22 01:31:41;;;;;;;2.40;0.80;;;;;;;10.56;66.60;94900.75;6979243;28;20219;-73
2021/05/22 01:35:02;;;;;;;3.07;1.07;;;;;;;10.53;67.33;94909.81;6956650;28;20254;-73
2021/05/22 01:38:22;;;;;;;1.00;0.60;;;;;;;10.52;67.32;94910.78;6969796;28;20223;-73
2021/05/22 01:41:43;;;;;;;2.00;0.70;;;;;;;10.57;68.13;94907.72;6971029;28;20320;-74
2021/05/22 01:45:26;;;;;;;0.97;0.63;;;;;;;10.57;67.72;94910.34;6981697;28;20237;-74
2021/05/22 01:48:47;;;;;;;2.30;0.60;;;;;;;10.56;67.59;94896.25;6979555;28;20597;-72
2021/05/22 01:52:10;;;;;;;3.60;0.87;;;;;;;10.56;67.75;94896.25;6958877;28;20687;-73
2021/05/22 01:55:30;;;;;;;0.87;0.63;;;;;;;10.56;68.09;94898.91;6962690;28;20238;-74
2021/05/22 01:58:51;;;;;;;3.67;1.10;;;;;;;10.57;68.21;94899.75;6956589;28;20243;-74
2021/05/22 02:02:11;;;;;;;2.40;0.80;;;;;;;10.57;68.36;94889.13;6975725;28;20217;-73
2021/05/22 02:05:35;;;;;;;2.47;0.77;;;;;;;10.57;68.44;94887.31;6940104;28;20219;-73
2021/05/22 02:09:01;;;;;;;1.57;0.70;;;;;;;10.56;67.96;94884.81;6969677;28;20224;-73
2021/05/22 02:12:22;;;;;;;3.47;1.07;;;;;;;10.50;68.28;94878.25;6950832;28;20215;-73
2021/05/22 02:15:50;;;;;;;2.50;0.80;;;;;;;10.47;68.18;94875.03;6968743;28;20231;-73
2021/05/22 02:19:11;;;;;;;2.40;1.20;;;;;;;10.43;67.76;94871.00;6958948;28;20242;-73
2021/05/22 02:22:32;;;;;;;5.60;1.37;;;;;;;10.39;67.70;94864.31;6963241;28;20225;-72
2021/05/22 02:25:54;;;;;;;4.47;1.20;;;;;;;10.36;67.88;94876.06;6965361;28;20211;-73
2021/05/22 02:29:19;;;;;;;2.93;1.00;;;;;;;10.35;67.94;94870.91;6972069;28;20277;-73
2021/05/22 02:32:42;;;;;;;2.93;0.97;;;;;;;10.31;67.23;94870.38;6955715;28;20615;-72
2021/05/22 02:36:03;;;;;;;3.60;1.00;;;;;;;10.31;66.98;94871.19;6944073;28;20222;-74
2021/05/22 02:39:26;;;;;;;5.53;1.83;;;;;;;10.27;67.50;94868.94;6946581;28;20305;-74
2021/05/22 02:42:50;;;;;;;4.80;1.30;;;;;;;10.25;67.67;94873.59;6962862;28;20696;-73
2021/05/22 02:46:14;;;;;;;6.17;1.30;;;;;;;10.23;67.38;94864.91;6953421;28;20219;-74
2021/05/22 02:49:41;;;;;;;4.53;1.30;;;;;;;10.20;67.72;94865.22;6956887;28;20259;-74
2021/05/22 02:53:02;;;;;;;4.87;1.47;;;;;;;10.18;67.04;94868.00;6965119;28;20230;-73
2021/05/22 02:56:23;;;;;;;5.17;1.53;;;;;;;10.17;67.38;94866.31;6980355;28;20223;-74
2021/05/22 02:59:44;;;;;;;3.80;1.33;;;;;;;10.16;66.75;94871.78;6950799;28;20233;-73
2021/05/22 03:03:05;;;;;;;9.63;1.53;;;;;;;10.15;66.91;94876.22;6945488;28;20230;-73
2021/05/22 03:06:26;;;;;;;6.67;1.40;;;;;;;10.16;66.77;94864.66;6951122;28;20211;-73
2021/05/22 03:09:47;;;;;;;4.03;1.63;;;;;;;10.16;66.84;94883.22;6961803;28;20211;-74
2021/05/22 03:13:07;;;;;;;4.37;1.87;;;;;;;10.17;66.49;94878.75;6961171;28;20285;-73
2021/05/22 03:16:28;;;;;;;5.83;1.80;;;;;;;10.14;66.73;94871.06;6948691;28;20238;-73
2021/05/22 03:19:48;;;;;;;7.50;1.90;;;;;;;10.13;66.89;94875.53;6967121;28;20279;-73
2021/05/22 03:23:09;;;;;;;5.47;2.03;;;;;;;10.10;66.58;94877.63;6956354;28;20353;-74
2021/05/22 03:26:29;;;;;;;8.20;2.03;;;;;;;10.11;66.53;94869.50;6928930;28;20214;-73
2021/05/22 03:29:49;;;;;;;8.13;1.90;;;;;;;10.13;66.07;94877.34;6955174;28;20230;-73
2021/05/22 03:33:12;;;;;;;6.63;1.90;;;;;;;10.14;66.48;94881.66;6951410;28;20238;-73
2021/05/22 03:36:33;;;;;;;4.67;1.40;;;;;;;10.11;66.31;94872.16;6950821;28;20261;-73
2021/05/22 03:39:55;;;;;;;7.57;2.20;;;;;;;10.06;65.58;94871.75;6949867;28;20269;-73
2021/05/22 03:43:16;;;;;;;3.10;1.40;;;;;;;10.05;66.03;94874.56;6957612;28;20223;-72
2021/05/22 03:46:36;;;;;;;4.47;1.63;;;;;;;10.06;65.86;94877.06;6947050;28;20301;-73
2021/05/22 03:49:59;;;;;;;6.03;1.80;;;;;;;10.07;65.96;94884.03;6962798;28;20218;-74
2021/05/22 03:53:20;;;;;;;12.67;2.20;;;;;;;10.05;65.66;94883.38;6951456;28;20737;-72
2021/05/22 03:56:40;;;;;;;7.90;1.77;;;;;;;10.05;65.76;94879.88;6957136;28;20238;-73
2021/05/22 04:00:04;;;;;;;8.97;2.13;;;;;;;10.09;65.27;94878.59;6959359;28;20238;-73
2021/05/22 04:03:24;;;;;;;8.10;2.17;;;;;;;10.08;65.33;94880.41;6952394;28;20234;-74
2021/05/22 04:06:44;;;;;;;7.87;2.27;;;;;;;10.11;65.38;94876.66;6957089;28;20242;-73
2021/05/22 04:10:06;;;;;;;9.27;2.00;;;;;;;10.13;65.31;94875.53;6946471;28;20621;-73
2021/05/22 04:13:28;;;;;;;5.63;1.60;;;;;;;10.19;65.07;94882.13;6965522;28;20273;-74
2021/05/22 04:16:48;;;;;;;8.37;2.20;;;;;;;10.24;64.85;94882.53;6929991;28;20773;-73
2021/05/22 04:20:10;;;;;;;7.33;2.40;;;;;;;10.28;64.61;94870.63;6968329;28;20298;-73
2021/05/22 04:23:30;;;;;;;6.40;2.00;;;;;;;10.37;65.00;94874.22;6956654;28;20252;-73
2021/05/22 04:26:51;;;;;;;6.20;2.20;;;;;;;10.42;64.36;94869.31;6957432;28;20219;-73
2021/05/22 04:30:12;;;;;;;6.70;2.17;;;;;;;10.44;64.27;94881.50;6956513;28;20601;-74
2021/05/22 04:33:34;;;;;;;5.47;2.27;;;;;;;10.51;63.96;94876.44;6945227;28;20226;-73
2021/05/22 04:36:57;;;;;;;5.43;1.97;;;;;;;10.56;63.95;94875.00;6949559;28;20219;-74
2021/05/22 04:40:17;;;;;;;11.07;2.17;;;;;;;10.63;63.78;94852.22;6944305;28;20730;-74
2021/05/22 04:43:38;;;;;;;5.67;2.00;;;;;;;10.73;63.95;94846.84;6960480;28;20682;-73
2021/05/22 04:47:01;;;;;;;7.23;1.90;;;;;;;10.83;63.45;94855.63;6960182;28;20719;-73
2021/05/22 04:50:25;;;;;;;4.13;1.53;;;;;;;10.92;63.27;94857.38;6933359;28;20211;-73
2021/05/22 04:53:46;;;;;;;5.53;1.47;;;;;;;11.07;62.89;94855.06;6965107;28;20690;-73
2021/05/22 04:57:06;;;;;;;7.87;1.80;;;;;;;11.22;62.88;94852.75;6951437;28;20215;-73
2021/05/22 05:00:30;;;;;;;6.17;1.80;;;;;;;11.37;62.31;94861.88;6953513;28;20225;-74
2021/05/22 05:03:50;;;;;;;6.30;1.70;;;;;;;11.51;61.81;94864.03;6951518;28;20265;-73
2021/05/22 05:07:10;;;;;;;3.90;1.30;;;;;;;11.65;61.59;94867.97;6952116;28;20234;-72
2021/05/22 05:10:31;;;;;;;7.97;1.50;;;;;;;11.75;61.10;94868.75;6955247;28;20221;-74
2021/05/22 05:13:51;;;;;;;4.00;1.60;;;;;;;11.88;60.94;94866.53;6947889;28;20233;-74
2021/05/22 05:17:12;;;;;;;4.23;1.73;;;;;;;12.04;61.06;94870.19;6952245;28;20277;-73
2021/05/22 05:20:35;;;;;;;6.00;1.70;;;;;;;12.19;60.18;94869.63;6965274;28;20916;-74
2021/05/22 05:23:55;;;;;;;5.00;1.60;;;;;;;12.34;59.99;94876.88;6959595;28;20318;-74
2021/05/22 05:27:16;;;;;;;4.23;1.33;;;;;;;12.51;59.54;94869.03;6951681;28;20223;-74
2021/05/22 05:30:39;;;;;;;6.17;1.77;;;;;;;12.64;59.21;94880.91;6969830;28;20786;-73
2021/05/22 05:33:59;;;;;;;6.00;1.80;;;;;;;12.78;58.67;94882.97;6933068;28;20228;-74
2021/05/22 05:37:20;;;;;;;6.47;1.47;;;;;;;12.94;58.29;94884.06;6952385;28;20277;-73
2021/05/22 05:40:40;;;;;;;6.23;1.53;;;;;;;13.06;57.74;94896.97;6954780;28;20249;-74
2021/05/22 05:44:01;;;;;;;4.63;1.30;;;;;;;13.14;57.12;94886.34;6953218;28;20223;-74
2021/05/22 05:47:24;;;;;;;5.70;1.50;;;;;;;13.24;56.42;94888.88;6961608;28;20272;-74
2021/05/22 05:50:44;;;;;;;4.83;1.40;;;;;;;13.32;56.43;94889.78;6965954;28;20639;-74
2021/05/22 05:54:05;;;;;;;4.30;1.50;;;;;;;13.45;56.25;94893.78;6955341;28;20698;-74
2021/05/22 05:57:25;;;;;;;4.10;1.30;;;;;;;13.57;55.85;94881.84;6959503;28;20219;-74
2021/05/22 06:00:48;;;;;;;3.57;1.10;;;;;;;13.72;55.06;94898.88;6952369;28;20353;-74
2021/05/22 06:04:09;;;;;;;5.43;1.00;;;;;;;13.90;54.26;94904.06;6941405;28;20595;-73
2021/05/22 06:07:29;;;;;;;2.43;1.10;;;;;;;14.00;53.65;94902.91;6956964;28;20756;-73
2021/05/22 06:10:51;;;;;;;2.97;1.17;;;;;;;14.11;53.33;94899.09;6942838;28;20295;-74
2021/05/22 06:14:32;;;;;;;3.27;0.90;;;;;;;14.22;52.88;94912.13;6953893;28;20224;-73
2021/05/22 06:17:52;;;;;;;4.23;1.00;;;;;;;14.35;52.85;94893.75;6962298;28;20217;-74
2021/05/22 06:21:13;;;;;;;3.30;1.03;;;;;;;14.46;51.88;94898.78;6953130;28;20231;-75
2021/05/22 06:24:34;;;;;;;5.43;1.30;;;;;;;14.51;51.36;94887.59;6958891;28;20246;-74
2021/05/22 06:27:54;;;;;;;2.20;1.00;;;;;;;14.62;51.20;94881.06;6964119;28;20316;-75
2021/05/22 06:31:15;;;;;;;5.50;1.20;;;;;;;14.70;51.32;94879.19;6955900;28;20824;-75
2021/05/22 06:34:38;;;;;;;2.80;1.00;;;;;;;14.83;51.18;94884.03;6941934;28;20257;-75
2021/05/22 06:37:58;;;;;;;3.13;1.10;;;;;;;14.97;50.31;94889.50;6951483;28;20294;-76
2021/05/22 06:41:19;;;;;;;3.87;1.10;;;;;;;15.01;48.71;94885.47;6933691;28;20224;-75
2021/05/22 06:44:48;;;;;;;6.53;1.40;;;;;;;14.98;49.52;94885.84;6956526;28;20715;-76
2021/05/22 06:48:11;;;;;;;2.37;1.10;;;;;;;14.92;48.43;94891.84;6963994;28;20599;-75
2021/05/22 06:51:31;;;;;;;6.17;1.30;;;;;;;14.85;49.19;94887.34;6959826;28;20218;-75
2021/05/22 06:54:52;;;;;;;4.03;1.23;;;;;;;14.76;49.83;94897.22;6966305;28;20237;-76
2021/05/22 06:58:14;;;;;;;3.67;1.40;;;;;;;14.63;49.55;94896.94;6957577;28;20219;-75
2021/05/22 07:01:35;;;;;;;4.20;1.57;;;;;;;14.53;49.95;94898.94;6966873;28;20221;-76
2021/05/22 07:04:55;;;;;;;4.80;1.10;;;;;;;14.39;49.75;94895.09;6956907;28;20211;-76
2021/05/22 07:08:17;;;;;;;4.43;1.23;;;;;;;14.24;49.44;94912.75;6953891;28;20223;-75
2021/05/22 07:11:37;;;;;;;3.13;1.10;;;;;;;14.03;49.30;94901.75;6950809;28;20297;-76
2021/05/22 07:14:58;;;;;;;4.97;1.40;;;;;;;13.93;49.95;94912.56;6952686;28;20598;-75
2021/05/22 07:18:18;;;;;;;6.63;1.40;;;;;;;13.82;50.02;94906.72;6958155;28;20226;-75
2021/05/22 07:21:39;;;;;;;4.73;1.37;;;;;;;13.77;50.51;94912.56;6949415;28;20281;-75
2021/05/22 07:24:59;;;;;;;4.60;1.20;;;;;;;13.72;50.58;94907.72;6955275;28;20273;-75
2021/05/22 07:28:19;;;;;;;4.97;1.27;;;;;;;13.71;51.05;94915.88;6963094;28;20241;-75
2021/05/22 07:31:40;;;;;;;3.60;1.30;;;;;;;13.80;51.19;94919.41;6935654;28;20308;-75
2021/05/22 07:35:04;;;;;;;3.20;1.07;;;;;;;13.95;50.93;94918.59;6943227;28;20254;-75
2021/05/22 07:38:24;;;;;;;2.83;1.30;;;;;;;14.02;50.62;94916.09;6960335;28;20249;-75
2021/05/22 07:41:46;;;;;;;3.70;1.07;;;;;;;14.07;50.25;94919.94;6965022;28;20222;-76
2021/05/22 07:45:10;;;;;;;4.60;1.43;;;;;;;14.13;50.30;94913.13;6926353;28;20962;-77
2021/05/22 07:48:34;;;;;;;3.43;1.20;;;;;;;14.26;50.75;94915.28;6922673;28;20243;-76
2021/05/22 07:52:01;;;;;;;5.13;1.20;;;;;;;14.35;50.57;94911.59;6923954;28;20234;-78
2021/05/22 07:55:22;;;;;;;4.90;1.20;;;;;;;14.49;50.24;94921.66;6919619;28;20230;-76
2021/05/22 07:58:42;;;;;;;5.40;1.33;;;;;;;14.52;50.48;94922.16;6903674;28;20211;-77
2021/05/22 08:02:04;;;;;;;1.83;0.73;;;;;;;14.50;50.11;94928.66;6939197;28;20222;-77
2021/05/22 08:05:24;;;;;;;2.77;1.13;;;;;;;14.48;49.86;94930.69;6949833;28;20262;-76
2021/05/22 08:08:46;;;;;;;3.60;1.30;;;;;;;14.55;50.09;94924.47;6927150;28;20200;-78
2021/05/22 08:12:06;;;;;;;4.17;1.20;;;;;;;14.78;50.38;94935.34;6923774;28;20212;-77
2021/05/22 08:15:27;;;;;;;3.90;1.10;;;;;;;14.98;49.67;94923.25;6948148;28;20650;-76
2021/05/22 08:18:47;;;;;;;5.20;0.97;;;;;;;15.11;48.95;94924.56;6928924;28;20238;-77
2021/05/22 08:22:08;;;;;;;2.53;1.10;;;;;;;15.25;47.59;94916.66;6925393;28;20215;-77
2021/05/22 08:25:33;;;;;;;2.77;1.13;;;;;;;15.27;47.57;94928.03;6942900;28;20700;-77
2021/05/22 08:28:55;;;;;;;4.47;1.37;;;;;;;15.38;47.23;94919.63;6909973;28;20223;-77
2021/05/22 08:32:16;;;;;;;2.27;0.80;;;;;;;15.51;47.34;94920.91;6943666;28;20357;-76
2021/05/22 08:35:36;;;;;;;2.70;0.90;;;;;;;15.59;46.60;94916.34;6952716;28;20227;-76
2021/05/22 08:38:57;;;;;;;3.97;1.00;;;;;;;15.69;46.36;94913.50;6929750;28;20216;-76
2021/05/22 08:42:26;;;;;;;3.13;0.90;;;;;;;15.98;46.72;94908.28;6954507;28;20993;-76
2021/05/22 08:45:47;;;;;;;4.30;1.30;;;;;;;16.26;46.00;94905.91;6933616;28;20277;-76
2021/05/22 08:49:08;;;;;;;3.17;1.20;;;;;;;16.48;44.94;94907.75;6967921;28;20558;-76
2021/05/22 08:52:31;;;;;;;3.23;1.17;;;;;;;16.75;44.63;94906.34;6960576;28;20242;-76
2021/05/22 08:55:51;;;;;;;2.17;0.90;;;;;;;16.92;43.50;94901.66;6955643;28;21180;-76
2021/05/22 08:59:12;;;;;;;2.17;0.90;;;;;;;17.15;43.87;94902.44;6942642;28;20704;-76
2021/05/22 09:02:33;;;;;;;2.10;1.03;;;;;;;17.23;42.82;94899.66;6949173;28;20240;-76
2021/05/22 09:05:53;;;;;;;2.17;1.10;;;;;;;17.29;43.14;94911.50;6940978;28;20230;-75
2021/05/22 09:09:14;;;;;;;1.67;0.70;;;;;;;17.33;42.86;94907.44;6931682;28;20976;-72
2021/05/22 09:12:39;;;;;;;3.03;0.97;;;;;;;17.39;42.69;94915.56;6956423;28;20304;-73
2021/05/22 09:16:04;;;;;;;1.43;1.00;;;;;;;17.38;42.70;94907.69;6949717;28;20227;-73
2021/05/22 09:19:29;;;;;;;2.60;0.87;;;;;;;17.35;42.75;94902.72;6942680;28;20219;-73
2021/05/22 09:23:01;;;;;;;2.10;1.10;;;;;;;17.36;42.32;94907.88;6948730;28;20757;-73
2021/05/22 09:26:33;;;;;;;2.20;0.90;;;;;;;17.45;41.81;94908.63;6949826;28;20215;-73
2021/05/22 09:29:53;;;;;;;3.43;1.00;;;;;;;17.48;40.48;94911.78;6940515;28;20297;-73
2021/05/22 09:33:16;;;;;;;1.93;1.00;;;;;;;17.57;41.60;94888.34;6950082;28;20227;-73
2021/05/22 09:36:46;;;;;;;2.40;0.93;;;;;;;17.65;40.25;94895.50;6949011;28;20219;-74
2021/05/22 09:40:09;;;;;;;2.40;1.10;;;;;;;17.79;40.63;94889.25;6948100;28;20218;-73
2021/05/22 09:43:32;;;;;;;3.07;1.10;;;;;;;17.69;40.14;94904.84;6951953;28;20219;-74
2021/05/22 09:46:55;;;;;;;2.07;0.80;;;;;;;17.72;41.25;94913.34;6955508;28;20239;-74
2021/05/22 09:50:34;;;;;;;3.60;0.97;;;;;;;17.72;41.20;94909.81;6975701;28;20214;-74
2021/05/22 09:53:54;;;;;;;3.83;1.10;;;;;;;17.70;40.67;94901.97;6959402;28;20226;-74
2021/05/22 09:57:17;;;;;;;3.97;1.30;;;;;;;17.70;40.78;94903.81;6949810;28;20223;-74
2021/05/22 10:00:37;;;;;;;2.40;1.03;;;;;;;17.53;40.20;94914.72;6946709;28;20268;-74
2021/05/22 10:04:20;;;;;;;3.27;0.90;;;;;;;17.32;40.40;94917.31;6967276;28;20319;-74
2021/05/22 10:07:43;;;;;;;1.63;0.87;;;;;;;17.25;40.41;94919.09;6936069;28;20322;-73
2021/05/22 10:11:08;;;;;;;1.87;0.97;;;;;;;17.25;41.03;94921.78;6943591;28;20352;-73
2021/05/22 10:14:37;;;;;;;3.30;1.17;;;;;;;17.39;41.92;94915.56;6943494;28;20245;-74
2021/05/22 10:17:58;;;;;;;2.03;1.00;;;;;;;17.49;41.00;94901.88;6935477;28;21109;-75
2021/05/22 10:21:18;;;;;;;1.80;0.90;;;;;;;17.45;40.56;94919.38;6945204;28;20680;-74
2021/05/22 10:24:41;;;;;;;3.87;1.07;;;;;;;17.48;40.23;94916.31;6940335;28;20223;-75
2021/05/22 10:28:02;;;;;;;4.10;1.20;;;;;;;17.42;39.13;94915.19;6951698;28;20219;-73
2021/05/22 10:31:23;;;;;;;2.80;1.10;;;;;;;17.40;39.54;94911.84;6949949;28;20211;-72
2021/05/22 10:34:43;;;;;;;1.53;0.80;;;;;;;17.48;38.74;94905.56;6957119;28;20233;-73
2021/05/22 10:38:04;;;;;;;3.77;1.30;;;;;;;17.52;38.63;94902.31;6937697;28;20819;-75
2021/05/22 10:41:37;;;;;;;1.87;0.90;;;;;;;17.68;39.34;94900.47;6965678;28;20613;-75
2021/05/22 10:44:58;;;;;;;3.00;1.00;;;;;;;17.80;39.03;94905.19;6943671;28;20664;-74
2021/05/22 10:48:19;;;;;;;2.50;0.93;;;;;;;17.89;38.96;94901.38;6948671;28;20222;-75
2021/05/22 10:51:41;;;;;;;4.53;1.33;;;;;;;17.92;38.98;94900.16;6966827;28;20226;-73
2021/05/22 10:55:12;;;;;;;2.23;0.90;;;;;;;18.00;38.91;94910.78;6970325;28;20296;-74
2021/05/22 10:58:36;;;;;;;3.53;0.87;;;;;;;18.07;38.61;94900.94;6936338;28;20220;-76
2021/05/22 11:01:57;;;;;;;2.70;0.93;;;;;;;18.04;38.09;94906.69;6964474;28;20235;-74
2021/05/22 11:05:31;;;;;;;2.20;0.90;;;;;;;18.09;37.36;94912.34;6950529;28;20223;-74
2021/05/22 11:08:51;;;;;;;1.97;1.00;;;;;;;18.12;37.87;94911.09;6963055;28;20219;-73
2021/05/22 11:12:12;;;;;;;2.53;0.90;;;;;;;18.21;37.73;94899.19;6941061;28;20299;-74
2021/05/22 11:15:47;;;;;;;1.90;0.90;;;;;;;18.25;36.48;94897.81;6963943;28;20698;-74
2021/05/22 11:19:09;;;;;;;2.50;0.90;;;;;;;18.28;36.46;94894.75;6961772;28;20263;-73
2021/05/22 11:22:58;;;;;;;2.20;0.90;;;;;;;18.39;37.55;94896.91;6962764;28;20243;-73
2021/05/22 11:26:50;;;;;;;2.93;0.90;;;;;;;18.41;36.81;94893.00;6956797;28;20227;-74
2021/05/22 11:30:41;;;;;;;1.00;0.80;;;;;;;18.48;36.55;94894.94;6956694;28;20695;-75
2021/05/22 11:34:19;;;;;;;2.17;0.83;;;;;;;18.46;35.57;94878.19;6946951;28;20241;-77
2021/05/22 11:37:40;;;;;;;3.30;1.13;;;;;;;18.44;35.68;94878.34;6943750;28;20224;-75
2021/05/22 11:41:06;;;;;;;2.40;0.90;;;;;;;18.35;35.36;94882.22;6957895;28;20298;-75
2021/05/22 11:44:28;;;;;;;2.60;0.93;;;;;;;18.23;35.64;94881.03;6958350;28;20712;-75
2021/05/22 11:47:48;;;;;;;2.20;0.70;;;;;;;18.23;36.39;94871.13;6927093;28;20249;-75
2021/05/22 11:51:20;;;;;;;2.37;0.90;;;;;;;18.20;35.89;94874.22;6927830;28;20660;-74
2021/05/22 11:54:40;;;;;;;3.03;0.90;;;;;;;18.14;35.16;94866.06;6936827;28;20238;-74
2021/05/22 11:58:11;;;;;;;4.20;1.00;;;;;;;18.07;35.05;94862.47;6955128;28;20280;-76
2021/05/22 12:01:42;;;;;;;2.17;0.87;;;;;;;18.04;35.64;94871.78;6952341;28;20289;-75
2021/05/22 12:05:04;;;;;;;3.30;0.70;;;;;;;18.11;35.53;94869.16;6942231;28;20590;-75
2021/05/22 12:08:27;;;;;;;2.63;0.90;;;;;;;18.21;36.01;94866.94;6947528;28;20754;-74
2021/05/22 12:12:03;;;;;;;1.30;0.60;;;;;;;18.25;36.11;94870.94;6959487;28;20226;-74
2021/05/22 12:15:27;;;;;;;1.93;0.80;;;;;;;18.37;36.14;94869.38;6938227;28;20234;-74
2021/05/22 12:18:47;;;;;;;1.47;0.90;;;;;;;18.47;36.00;94863.69;6935855;28;20242;-75
2021/05/22 12:22:08;;;;;;;2.93;0.87;;;;;;;18.49;35.29;94867.03;6932100;28;20223;-74
2021/05/22 12:25:29;;;;;;;6.17;2.20;;;;;;;18.42;34.89;94864.25;6967845;28;20211;-74
2021/05/22 12:28:52;;;;;;;8.33;2.63;;;;;;;18.40;35.28;94861.78;6963544;28;20227;-75
2021/05/22 12:32:13;;;;;;;5.67;2.47;;;;;;;18.44;34.75;94872.97;6930900;28;20306;-74
2021/05/22 12:35:36;;;;;;;11.60;4.97;;;;;;;18.45;35.03;94866.59;6946424;28;20233;-75
2021/05/22 12:38:57;;;;;;;7.57;2.87;;;;;;;18.45;34.34;94866.59;6940674;28;20203;-75
2021/05/22 12:42:17;;;;;;;3.00;1.30;;;;;;;18.43;34.14;94872.16;6940862;28;20283;-74
2021/05/22 12:45:42;;;;;;;11.90;3.33;;;;;;;18.40;33.90;94882.47;6955430;28;20701;-74
2021/05/22 12:49:08;;;;;;;2.20;1.00;;;;;;;18.35;34.18;94884.91;6952962;28;20218;-74
2021/05/22 12:52:31;;;;;;;2.43;0.90;;;;;;;18.27;34.07;94899.28;6955710;28;20216;-74
2021/05/22 12:56:01;;;;;;;4.87;1.00;;;;;;;18.09;34.53;94898.91;6970962;28;20884;-75
2021/05/22 12:59:23;;;;;;;1.43;0.70;;;;;;;17.94;34.81;94900.78;6959360;28;20238;-74
2021/05/22 13:02:47;;;;;;;2.37;0.63;;;;;;;17.95;36.44;94884.50;6960960;28;20234;-74
2021/05/22 13:06:11;;;;;;;1.40;0.70;;;;;;;18.00;37.25;94897.34;6950268;28;20220;-74
2021/05/22 13:09:32;;;;;;;4.47;1.10;;;;;;;18.04;39.98;94874.47;6932866;28;20722;-74
2021/05/22 13:12:56;;;;;;;3.27;1.20;;;;;;;18.08;40.74;94878.41;6961496;28;20233;-74
2021/05/22 13:16:16;;;;;;;1.97;1.00;;;;;;;18.07;41.22;94863.31;6945434;28;20226;-75
2021/05/22 13:19:56;;;;;;;2.10;0.90;;;;;;;18.05;41.06;94867.22;6966409;28;20238;-74
2021/05/22 13:23:19;;;;;;;1.73;0.97;;;;;;;18.11;41.20;94864.59;6964990;28;20242;-74
2021/05/22 13:26:44;;;;;;;2.70;0.80;;;;;;;18.13;41.49;94867.94;6958292;28;20227;-74
2021/05/22 13:30:07;;;;;;;1.63;0.80;;;;;;;18.12;41.44;94868.13;6967113;28;20220;-74
2021/05/22 13:33:35;;;;;;;4.60;1.10;;;;;;;18.14;41.78;94858.84;6949575;28;20714;-74
2021/05/22 13:36:56;;;;;;;1.60;1.00;;;;;;;18.17;41.75;94855.75;6947256;28;20292;-74
2021/05/22 13:40:19;;;;;;;1.47;0.87;;;;;;;18.22;39.94;94861.41;6955963;28;20620;-74
2021/05/22 13:43:42;;;;;;;4.63;2.10;;;;;;;18.31;40.63;94856.72;6952741;28;20666;-74
2021/05/22 13:47:05;;;;;;;1.80;0.97;;;;;;;18.30;38.23;94853.22;6967148;28;20214;-74
2021/05/22 13:50:31;;;;;;;2.20;0.70;;;;;;;18.23;38.35;94848.78;6966539;28;20586;-75
2021/05/22 13:53:54;;;;;;;3.07;1.00;;;;;;;18.31;39.67;94848.66;6956180;28;20228;-74
2021/05/22 13:57:14;;;;;;;1.33;0.60;;;;;;;18.33;39.87;94846.63;6968023;28;20215;-73
2021/05/22 14:00:35;;;;;;;2.63;1.23;;;;;;;18.37;40.88;94842.50;6954340;28;20245;-74
2021/05/22 14:03:57;;;;;;;1.67;0.70;;;;;;;18.40;39.47;94845.66;6927069;28;20223;-74
2021/05/22 14:07:18;;;;;;;2.53;0.93;;;;;;;18.51;40.72;94859.59;6931449;28;20229;-75
2021/05/22 14:10:41;;;;;;;1.77;0.77;;;;;;;18.60;38.89;94837.78;6958047;28;20229;-74
2021/05/22 14:14:04;;;;;;;2.37;1.00;;;;;;;18.64;37.84;94844.44;6960670;28;20279;-74
2021/05/22 14:17:25;;;;;;;4.07;0.80;;;;;;;18.64;38.18;94846.28;6959285;28;20214;-74
2021/05/22 14:20:45;;;;;;;2.20;0.90;;;;;;;18.60;37.31;94843.16;6950014;28;20594;-74
2021/05/22 14:24:06;;;;;;;2.07;0.97;;;;;;;18.55;36.81;94842.09;6946053;28;20252;-74
2021/05/22 14:27:29;;;;;;;2.93;0.67;;;;;;;18.53;37.15;94858.38;6948565;28;20713;-74
2021/05/22 14:30:49;;;;;;;1.60;0.83;;;;;;;18.48;36.33;94854.59;6972509;28;20215;-74
2021/05/22 14:34:10;;;;;;;2.47;1.20;;;;;;;18.52;36.85;94845.94;6948589;28;20308;-74
2021/05/22 14:37:35;;;;;;;2.03;0.80;;;;;;;18.53;37.28;94836.03;6956801;28;20759;-74
2021/05/22 14:40:57;;;;;;;2.73;0.70;;;;;;;18.61;37.74;94825.19;6951836;28;20303;-75
2021/05/22 14:44:17;;;;;;;4.33;1.00;;;;;;;18.64;36.64;94836.38;6953279;28;20250;-74
2021/05/22 14:47:41;;;;;;;1.17;0.60;;;;;;;18.67;36.12;94827.88;6963111;28;20272;-74
2021/05/22 14:51:02;;;;;;;1.33;0.87;;;;;;;18.71;36.06;94831.03;6949829;28;20650;-74
2021/05/22 14:54:22;;;;;;;2.40;0.70;;;;;;;18.74;36.63;94834.16;6975904;28;20815;-74
2021/05/22 14:57:43;;;;;;;3.83;0.90;;;;;;;18.77;36.78;94822.16;6957348;28;20251;-74
2021/05/22 15:01:03;;;;;;;1.90;0.80;;;;;;;18.77;36.29;94822.16;6937684;28;20212;-74
2021/05/22 15:04:26;;;;;;;2.43;1.10;;;;;;;18.78;36.76;94821.16;6954289;28;20634;-74
2021/05/22 15:07:50;;;;;;;1.27;0.70;;;;;;;18.80;35.63;94827.16;6961971;28;20214;-73
2021/05/22 15:11:10;;;;;;;1.27;0.70;;;;;;;18.77;35.64;94820.31;6939538;28;20310;-74
2021/05/22 15:14:33;;;;;;;3.80;1.00;;;;;;;18.73;35.26;94824.44;6969310;28;20231;-73
2021/05/22 15:17:55;;;;;;;1.67;0.70;;;;;;;18.70;35.04;94832.91;6964765;28;20218;-74
2021/05/22 15:21:18;;;;;;;1.37;0.60;;;;;;;18.69;35.29;94823.16;6935812;28;20221;-74
2021/05/22 15:24:38;;;;;;;3.17;1.00;;;;;;;18.68;34.84;94818.81;6953031;28;20255;-74
2021/05/22 15:28:00;;;;;;;2.53;0.87;;;;;;;18.71;34.67;94829.16;6961711;28;20227;-73
2021/05/22 15:31:24;;;;;;;1.43;0.70;;;;;;;18.71;34.70;94825.66;6968115;28;20216;-73
2021/05/22 15:34:47;;;;;;;3.33;0.73;;;;;;;18.70;34.56;94824.00;6939895;28;20228;-74
2021/05/22 15:38:07;;;;;;;1.10;0.73;;;;;;;18.71;34.53;94817.59;6951519;28;20220;-74
2021/05/22 15:41:27;;;;;;;1.87;1.00;;;;;;;18.72;34.58;94830.81;6964770;28;20607;-73
2021/05/22 15:44:50;;;;;;;0.73;0.63;;;;;;;18.72;34.13;94819.22;6942897;28;20229;-73
2021/05/22 15:56:52;;;;;;;1.27;0.60;;;;;;;18.70;34.61;94818.63;6971896;28;20282;-74
2021/05/22 15:59:09;;;;;;;2.17;0.87;;;;;;;18.73;35.14;94815.53;6930939;28;20219;-74
2021/05/22 16:02:43;;;;;;;6.13;0.80;;;;;;;18.75;35.11;94819.69;6955357;28;20225;-74